createdAt,value
2022-09-26T00:01:38.345Z,11.74
2022-09-26T00:04:07.772Z,11.71
2022-09-26T00:06:34.752Z,11.58
2022-09-26T00:09:02.052Z,11.51
2022-09-26T00:11:30.335Z,11.51
2022-09-26T00:14:00.696Z,11.55
2022-09-26T00:16:27.948Z,11.64
2022-09-26T00:18:55.812Z,11.64
2022-09-26T00:21:23.076Z,11.65
2022-09-26T00:23:50.244Z,11.62
2022-09-26T00:26:17.881Z,11.61
2022-09-26T00:28:44.665Z,11.53
2022-09-26T00:31:14.005Z,11.49
2022-09-26T00:33:41.149Z,11.54
2022-09-26T00:36:08.068Z,11.50
2022-09-26T00:38:35.290Z,11.46
2022-09-26T00:41:02.630Z,11.37
2022-09-26T00:43:34.119Z,11.49
2022-09-26T00:46:19.847Z,11.45
2022-09-26T00:48:49.001Z,11.39
2022-09-26T00:51:16.079Z,11.44
2022-09-26T00:53:45.510Z,11.44
2022-09-26T00:56:16.237Z,11.43
2022-09-26T00:58:45.899Z,11.42
2022-09-26T01:01:13.405Z,11.42
2022-09-26T01:03:42.565Z,11.43
2022-09-26T01:06:09.708Z,11.44
2022-09-26T01:08:40.334Z,11.30
2022-09-26T01:11:07.681Z,11.33
2022-09-26T01:13:35.547Z,11.31
2022-09-26T01:16:02.636Z,11.35
2022-09-26T01:18:29.800Z,11.38
2022-09-26T01:21:02.704Z,11.42
2022-09-26T01:23:32.592Z,11.44
2022-09-26T01:25:59.537Z,11.32
2022-09-26T01:28:32.508Z,11.38
2022-09-26T01:31:25.861Z,11.23
2022-09-26T01:34:02.178Z,11.16
2022-09-26T01:36:42.786Z,11.28
2022-09-26T01:39:28.316Z,11.26
2022-09-26T01:41:55.033Z,11.28
2022-09-26T01:44:34.491Z,11.18
2022-09-26T01:47:01.263Z,11.16
2022-09-26T01:49:44.913Z,11.12
2022-09-26T01:52:17.944Z,11.12
2022-09-26T01:54:47.827Z,11.14
2022-09-26T01:57:17.735Z,11.16
2022-09-26T01:59:48.078Z,11.13
2022-09-26T02:02:19.497Z,11.15
2022-09-26T02:04:49.544Z,11.13
2022-09-26T02:07:19.007Z,11.11
2022-09-26T02:09:49.039Z,11.12
2022-09-26T02:12:23.042Z,11.03
2022-09-26T02:14:51.791Z,10.99
2022-09-26T02:17:22.920Z,11.02
2022-09-26T02:19:58.860Z,11.04
2022-09-26T02:22:27.790Z,11.06
2022-09-26T02:24:54.599Z,11.03
2022-09-26T02:27:21.861Z,10.96
2022-09-26T02:29:48.823Z,10.90
2022-09-26T02:32:17.809Z,10.93
2022-09-26T02:34:45.726Z,10.81
2022-09-26T02:37:13.551Z,10.85
2022-09-26T02:39:40.981Z,10.89
2022-09-26T02:42:21.375Z,10.87
2022-09-26T02:45:06.922Z,10.84
2022-09-26T02:47:36.780Z,10.84
2022-09-26T02:50:04.750Z,10.72
2022-09-26T02:52:34.411Z,10.80
2022-09-26T02:55:15.176Z,10.76
2022-09-26T02:58:03.980Z,10.75
2022-09-26T03:00:48.203Z,10.73
2022-09-26T03:03:21.887Z,10.75
2022-09-26T03:05:49.623Z,10.73
2022-09-26T03:08:20.780Z,10.77
2022-09-26T03:10:48.489Z,10.66
2022-09-26T03:13:16.704Z,10.54
2022-09-26T03:15:45.359Z,10.54
2022-09-26T03:18:14.864Z,10.46
2022-09-26T03:20:42.068Z,10.47
2022-09-26T03:23:09.755Z,10.32
2022-09-26T03:25:36.908Z,10.11
2022-09-26T03:28:04.104Z,9.88
2022-09-26T03:30:30.859Z,9.86
2022-09-26T03:32:57.810Z,9.83
2022-09-26T03:35:24.818Z,9.82
2022-09-26T03:37:51.559Z,9.82
2022-09-26T03:40:18.507Z,9.90
2022-09-26T03:42:46.881Z,9.82
2022-09-26T03:45:14.087Z,9.59
2022-09-26T03:47:42.124Z,9.63
2022-09-26T03:50:09.630Z,9.67
2022-09-26T03:52:36.724Z,9.62
2022-09-26T03:55:04.316Z,9.58
2022-09-26T03:57:31.362Z,9.56
2022-09-26T03:59:58.096Z,9.58
2022-09-26T04:02:25.252Z,9.79
2022-09-26T04:04:52.357Z,9.97
2022-09-26T04:07:19.098Z,10.11
2022-09-26T04:09:45.863Z,10.07
2022-09-26T04:12:12.888Z,10.14
2022-09-26T04:14:39.634Z,10.14
2022-09-26T04:17:06.397Z,9.86
2022-09-26T04:19:33.795Z,9.78
2022-09-26T04:22:00.929Z,9.59
2022-09-26T04:24:27.985Z,9.27
2022-09-26T04:26:55.325Z,9.08
2022-09-26T04:29:22.182Z,9.04
2022-09-26T04:31:48.995Z,8.95
2022-09-26T04:34:16.053Z,8.97
2022-09-26T04:36:43.761Z,8.91
2022-09-26T04:39:10.604Z,9.07
2022-09-26T04:41:38.859Z,9.00
2022-09-26T04:44:05.663Z,8.91
2022-09-26T04:46:32.564Z,8.84
2022-09-26T04:49:00.592Z,8.76
2022-09-26T04:51:28.235Z,8.81
2022-09-26T04:53:55.264Z,8.96
2022-09-26T04:56:23.467Z,8.89
2022-09-26T04:58:50.260Z,9.02
2022-09-26T05:01:18.321Z,9.06
2022-09-26T05:03:45.746Z,9.05
2022-09-26T05:06:13.704Z,9.07
2022-09-26T05:08:41.489Z,8.98
2022-09-26T05:11:09.274Z,8.93
2022-09-26T05:13:37.326Z,8.93
2022-09-26T05:16:05.694Z,8.98
2022-09-26T05:18:33.774Z,9.04
2022-09-26T05:21:01.449Z,8.86
2022-09-26T05:23:47.005Z,9.08
2022-09-26T05:26:25.693Z,9.04
2022-09-26T05:28:52.576Z,9.34
2022-09-26T05:31:19.628Z,9.34
2022-09-26T05:33:46.772Z,9.21
2022-09-26T05:36:14.221Z,9.47
2022-09-26T05:38:41.279Z,9.52
2022-09-26T05:41:08.065Z,9.58
2022-09-26T05:43:35.428Z,9.51
2022-09-26T05:46:06.261Z,9.38
2022-09-26T05:48:33.816Z,9.24
2022-09-26T05:51:04.671Z,9.20
2022-09-26T05:53:32.335Z,9.30
2022-09-26T05:55:59.164Z,9.21
2022-09-26T05:58:31.395Z,9.16
2022-09-26T06:01:05.992Z,9.32
2022-09-26T06:03:35.835Z,9.37
2022-09-26T06:06:03.984Z,9.36
2022-09-26T06:08:31.056Z,9.35
2022-09-26T06:10:59.034Z,9.39
2022-09-26T06:13:25.777Z,9.32
2022-09-26T06:15:52.818Z,9.26
2022-09-26T06:18:19.954Z,9.39
2022-09-26T06:20:47.207Z,9.61
2022-09-26T06:23:14.327Z,9.66
2022-09-26T06:25:42.280Z,9.73
2022-09-26T06:28:09.278Z,9.80
2022-09-26T06:30:36.215Z,10.06
2022-09-26T06:33:04.116Z,10.24
2022-09-26T06:35:30.974Z,10.28
2022-09-26T06:37:59.156Z,10.30
2022-09-26T06:40:26.477Z,10.52
2022-09-26T06:42:55.821Z,10.68
2022-09-26T06:45:22.605Z,10.76
2022-09-26T06:47:49.723Z,10.61
2022-09-26T06:50:16.697Z,10.89
2022-09-26T06:52:44.309Z,10.75
2022-09-26T06:55:11.921Z,10.85
2022-09-26T06:57:40.455Z,11.11
2022-09-26T07:00:08.820Z,10.90
2022-09-26T07:02:35.809Z,10.73
2022-09-26T07:05:04.000Z,10.96
2022-09-26T07:07:31.674Z,11.16
2022-09-26T07:09:58.999Z,10.88
2022-09-26T07:12:26.634Z,11.12
2022-09-26T07:14:53.884Z,10.95
2022-09-26T07:17:21.007Z,11.32
2022-09-26T07:19:51.091Z,11.32
2022-09-26T07:22:17.930Z,11.10
2022-09-26T07:24:46.426Z,11.28
2022-09-26T07:27:14.278Z,11.25
2022-09-26T07:29:41.445Z,11.27
2022-09-26T07:32:08.372Z,11.44
2022-09-26T07:34:35.472Z,11.51
2022-09-26T07:37:02.266Z,11.94
2022-09-26T07:39:29.057Z,11.99
2022-09-26T07:41:56.193Z,11.95
2022-09-26T07:47:29.001Z,12.23
2022-09-26T07:50:15.808Z,12.60
2022-09-26T07:52:43.814Z,12.76
2022-09-26T07:55:12.269Z,12.86
2022-09-26T07:57:39.092Z,13.93
2022-09-26T08:00:12.941Z,14.16
2022-09-26T08:02:42.947Z,14.33
2022-09-26T08:05:11.111Z,14.50
2022-09-26T08:07:38.492Z,14.81
2022-09-26T08:10:06.061Z,15.41
2022-09-26T08:12:36.018Z,15.94
2022-09-26T08:15:06.109Z,15.82
2022-09-26T08:17:33.567Z,16.51
2022-09-26T08:20:01.288Z,16.44
2022-09-26T08:22:28.279Z,16.64
2022-09-26T08:24:55.420Z,16.65
2022-09-26T08:27:23.283Z,16.07
2022-09-26T08:29:51.181Z,15.92
2022-09-26T08:32:19.085Z,16.08
2022-09-26T08:34:46.636Z,16.38
2022-09-26T08:37:14.023Z,16.57
2022-09-26T08:39:40.735Z,17.11
2022-09-26T08:42:34.093Z,18.31
2022-09-26T08:45:27.120Z,18.62
2022-09-26T08:48:01.360Z,18.63
2022-09-26T08:50:48.372Z,19.62
2022-09-26T08:53:27.179Z,20.34
2022-09-26T08:55:55.756Z,21.60
2022-09-26T08:58:28.922Z,19.43
2022-09-26T09:00:59.447Z,19.03
2022-09-26T09:03:30.058Z,19.54
2022-09-26T09:05:59.946Z,19.80
2022-09-26T09:08:38.892Z,20.05
2022-09-26T09:11:05.708Z,20.39
2022-09-26T09:13:32.768Z,19.32
2022-09-26T09:16:18.548Z,19.84
2022-09-26T09:18:59.872Z,21.41
2022-09-26T09:21:42.016Z,22.56
2022-09-26T09:24:35.605Z,22.12
2022-09-26T09:29:58.410Z,20.28
2022-09-26T09:32:29.091Z,19.78
2022-09-26T09:34:56.560Z,18.95
2022-09-26T09:37:30.288Z,19.49
2022-09-26T09:39:57.287Z,18.74
2022-09-26T09:42:43.358Z,19.13
2022-09-26T09:45:18.903Z,20.17
2022-09-26T09:47:46.101Z,20.28
2022-09-26T09:50:26.120Z,19.08
2022-09-26T09:52:58.271Z,20.20
2022-09-26T09:55:51.525Z,20.04
2022-09-26T09:58:30.718Z,20.52
2022-09-26T10:01:17.954Z,20.40
2022-09-26T10:03:44.826Z,21.31
2022-09-26T10:06:44.146Z,21.65
2022-09-26T10:09:35.526Z,19.86
2022-09-26T10:11:54.437Z,19.29
2022-09-26T10:14:34.298Z,19.16
2022-09-26T10:17:10.374Z,19.53
2022-09-26T10:19:39.276Z,18.09
2022-09-26T10:22:11.299Z,16.74
2022-09-26T10:24:41.006Z,17.32
2022-09-26T10:27:19.138Z,17.15
2022-09-26T10:29:47.322Z,15.93
2022-09-26T10:32:17.902Z,15.14
2022-09-26T10:35:02.292Z,15.59
2022-09-26T10:37:30.524Z,16.78
2022-09-26T10:40:17.302Z,17.18
2022-09-26T10:42:47.215Z,16.55
2022-09-26T10:45:15.935Z,15.61
2022-09-26T10:47:46.372Z,15.23
2022-09-26T10:50:18.182Z,15.86
2022-09-26T10:53:09.054Z,17.48
2022-09-26T10:55:40.255Z,18.24
2022-09-26T10:58:13.749Z,18.82
2022-09-26T11:00:42.837Z,19.58
2022-09-26T11:03:11.399Z,19.82
2022-09-26T11:05:58.504Z,18.53
2022-09-26T11:08:29.607Z,17.94
2022-09-26T11:11:01.331Z,18.09
2022-09-26T11:13:30.261Z,17.60
2022-09-26T11:16:14.028Z,16.46
2022-09-26T11:18:50.399Z,16.53
2022-09-26T11:21:37.351Z,16.96
2022-09-26T11:24:17.620Z,16.65
2022-09-26T11:26:49.255Z,16.19
2022-09-26T11:29:17.347Z,16.35
2022-09-26T11:31:44.427Z,16.30
2022-09-26T11:34:13.899Z,15.88
2022-09-26T11:36:47.033Z,15.85
2022-09-26T11:39:34.690Z,15.94
2022-09-26T11:42:07.611Z,16.28
2022-09-26T11:44:44.543Z,15.80
2022-09-26T11:47:14.367Z,15.40
2022-09-26T11:49:41.127Z,15.13
2022-09-26T11:52:14.755Z,15.25
2022-09-26T11:54:48.302Z,14.93
2022-09-26T11:57:34.671Z,14.70
2022-09-26T12:00:24.464Z,14.95
2022-09-26T12:03:10.373Z,15.12
2022-09-26T12:06:04.436Z,15.18
2022-09-26T12:08:37.676Z,15.35
2022-09-26T12:11:10.806Z,14.99
2022-09-26T12:13:41.702Z,15.05
2022-09-26T12:16:18.614Z,14.94
2022-09-26T12:18:57.700Z,14.76
2022-09-26T12:21:30.763Z,14.70
2022-09-26T12:24:16.082Z,14.49
2022-09-26T12:27:01.822Z,14.31
2022-09-26T12:29:28.729Z,14.33
2022-09-26T12:32:23.423Z,14.47
2022-09-26T12:35:15.971Z,14.48
2022-09-26T12:37:45.984Z,14.83
2022-09-26T12:40:22.021Z,15.02
2022-09-26T12:43:06.485Z,15.27
2022-09-26T12:45:33.265Z,15.18
2022-09-26T12:48:19.140Z,15.30
2022-09-26T12:50:51.742Z,15.01
2022-09-26T12:53:28.461Z,14.79
2022-09-26T12:55:55.447Z,14.45
2022-09-26T12:58:31.671Z,14.18
2022-09-26T13:01:17.263Z,14.09
2022-09-26T13:03:50.263Z,14.24
2022-09-26T13:06:29.912Z,14.52
2022-09-26T13:09:22.997Z,14.41
2022-09-26T13:11:54.084Z,14.49
2022-09-26T13:14:30.932Z,14.68
2022-09-26T13:17:15.568Z,14.67
2022-09-26T13:20:18.973Z,14.72
2022-09-26T13:23:01.011Z,14.54
2022-09-26T13:25:39.961Z,14.66
2022-09-26T13:28:24.626Z,14.72
2022-09-26T13:30:54.983Z,14.60
2022-09-26T13:33:21.784Z,14.86
2022-09-26T13:35:51.423Z,15.29
2022-09-26T13:38:18.573Z,15.12
2022-09-26T13:40:50.706Z,14.62
2022-09-26T13:43:25.794Z,14.53
2022-09-26T13:46:03.766Z,14.38
2022-09-26T13:48:33.807Z,14.14
2022-09-26T13:51:18.512Z,14.06
2022-09-26T13:53:45.318Z,14.37
2022-09-26T13:56:30.833Z,14.51
2022-09-26T13:59:04.400Z,14.76
2022-09-26T14:01:33.499Z,14.78
2022-09-26T14:04:17.785Z,14.99
2022-09-26T14:07:03.636Z,14.82
2022-09-26T14:09:41.203Z,14.61
2022-09-26T14:12:20.173Z,14.42
2022-09-26T14:14:52.082Z,14.71
2022-09-26T14:17:45.083Z,14.78
2022-09-26T14:20:17.432Z,14.75
2022-09-26T14:22:51.943Z,14.60
2022-09-26T14:25:37.861Z,14.27
2022-09-26T14:28:17.329Z,14.38
2022-09-26T14:31:04.160Z,14.17
2022-09-26T14:33:31.862Z,14.23
2022-09-26T14:36:18.284Z,13.92
2022-09-26T14:38:50.450Z,13.57
2022-09-26T14:41:19.199Z,13.55
2022-09-26T14:43:47.508Z,13.34
2022-09-26T14:46:17.678Z,13.35
2022-09-26T14:48:45.188Z,13.26
2022-09-26T14:51:19.511Z,13.41
2022-09-26T14:53:49.344Z,13.67
2022-09-26T14:56:27.253Z,13.77
2022-09-26T14:58:54.644Z,13.96
2022-09-26T15:01:51.026Z,14.17
2022-09-26T15:04:21.103Z,14.14
2022-09-26T15:06:50.812Z,13.99
2022-09-26T15:09:20.364Z,14.01
2022-09-26T15:12:08.175Z,13.89
2022-09-26T15:14:39.120Z,13.79
2022-09-26T15:17:06.782Z,13.89
2022-09-26T15:19:36.017Z,13.80
2022-09-26T15:22:06.181Z,13.84
2022-09-26T15:24:34.100Z,13.58
2022-09-26T15:27:07.227Z,13.47
2022-09-26T15:29:35.718Z,13.30
2022-09-26T15:32:02.770Z,13.43
2022-09-26T15:34:33.343Z,13.52
2022-09-26T15:37:00.543Z,13.40
2022-09-26T15:39:30.437Z,13.32
2022-09-26T15:42:16.277Z,13.45
2022-09-26T15:44:48.139Z,13.31
2022-09-26T15:47:30.337Z,13.35
2022-09-26T15:50:10.459Z,13.34
2022-09-26T15:52:46.988Z,13.30
2022-09-26T15:55:19.939Z,13.34
2022-09-26T15:57:48.342Z,13.15
2022-09-26T16:00:15.987Z,13.11
2022-09-26T16:02:43.710Z,13.17
2022-09-26T16:05:13.006Z,13.11
2022-09-26T16:07:41.740Z,13.25
2022-09-26T16:10:29.936Z,13.24
2022-09-26T16:12:59.753Z,13.22
2022-09-26T16:15:31.501Z,13.15
2022-09-26T16:17:59.094Z,13.17
2022-09-26T16:20:29.957Z,13.05
2022-09-26T16:23:04.048Z,13.09
2022-09-26T16:25:47.740Z,12.96
2022-09-26T16:28:17.749Z,13.07
2022-09-26T16:30:46.643Z,12.84
2022-09-26T16:33:16.364Z,12.92
2022-09-26T16:35:47.912Z,12.91
2022-09-26T16:38:28.032Z,12.81
2022-09-26T16:40:56.569Z,12.94
2022-09-26T16:43:24.220Z,12.69
2022-09-26T16:46:11.656Z,12.75
2022-09-26T16:48:40.633Z,12.59
2022-09-26T16:51:18.531Z,12.63
2022-09-26T16:54:00.713Z,12.55
2022-09-26T16:56:28.227Z,12.70
2022-09-26T16:58:56.816Z,12.77
2022-09-26T17:01:42.813Z,12.61
2022-09-26T17:04:15.278Z,12.54
2022-09-26T17:06:42.096Z,12.57
2022-09-26T17:09:35.347Z,12.61
2022-09-26T17:12:03.960Z,12.51
2022-09-26T17:14:40.459Z,12.51
2022-09-26T17:17:12.986Z,12.51
2022-09-26T17:19:40.516Z,12.46
2022-09-26T17:22:33.465Z,12.38
2022-09-26T17:25:00.538Z,12.14
2022-09-26T17:27:30.675Z,12.22
2022-09-26T17:30:01.930Z,12.26
2022-09-26T17:32:29.524Z,12.26
2022-09-26T17:35:01.324Z,12.24
2022-09-26T17:37:28.431Z,12.07
2022-09-26T17:39:55.656Z,12.11
2022-09-26T17:42:23.249Z,11.98
2022-09-26T17:44:50.641Z,11.95
2022-09-26T17:47:19.213Z,11.96
2022-09-26T17:49:51.120Z,12.00
2022-09-26T17:52:25.380Z,11.86
2022-09-26T17:54:55.945Z,11.85
2022-09-26T17:57:25.604Z,11.78
2022-09-26T17:59:54.804Z,11.80
2022-09-26T18:02:30.570Z,11.74
2022-09-26T18:04:59.358Z,11.68
2022-09-26T18:07:31.530Z,11.46
2022-09-26T18:09:59.137Z,11.67
2022-09-26T18:12:26.636Z,11.68
2022-09-26T18:14:55.476Z,11.70
2022-09-26T18:17:22.484Z,11.69
2022-09-26T18:19:50.721Z,11.62
2022-09-26T18:22:19.003Z,11.50
2022-09-26T18:24:47.486Z,11.57
2022-09-26T18:27:15.492Z,11.72
2022-09-26T18:29:44.749Z,11.52
2022-09-26T18:32:14.105Z,11.57
2022-09-26T18:34:40.909Z,11.35
2022-09-26T18:37:08.646Z,11.29
2022-09-26T18:39:36.865Z,11.37
2022-09-26T18:42:09.290Z,11.33
2022-09-26T18:44:36.436Z,11.26
2022-09-26T18:47:06.026Z,11.21
2022-09-26T18:49:34.368Z,11.32
2022-09-26T18:52:01.772Z,11.12
2022-09-26T18:54:29.281Z,10.98
2022-09-26T18:57:14.418Z,11.04
2022-09-26T18:59:43.385Z,11.12
2022-09-26T19:02:22.782Z,11.14
2022-09-26T19:04:50.945Z,10.93
2022-09-26T19:07:21.324Z,10.96
2022-09-26T19:09:48.623Z,10.91
2022-09-26T19:12:17.155Z,10.85
2022-09-26T19:14:44.610Z,10.75
2022-09-26T19:17:12.214Z,10.64
2022-09-26T19:19:39.742Z,10.61
2022-09-26T19:22:14.462Z,10.57
2022-09-26T19:24:49.998Z,10.63
2022-09-26T19:27:24.571Z,10.64
2022-09-26T19:29:51.558Z,10.57
2022-09-26T19:32:23.038Z,10.54
2022-09-26T19:34:56.031Z,10.59
2022-09-26T19:37:23.008Z,10.46
2022-09-26T19:39:49.839Z,10.44
2022-09-26T19:42:16.694Z,10.44
2022-09-26T19:44:43.974Z,10.46
2022-09-26T19:47:21.667Z,10.42
2022-09-26T19:49:50.495Z,10.41
2022-09-26T19:52:18.573Z,10.36
2022-09-26T19:54:45.712Z,10.28
2022-09-26T19:57:14.791Z,10.32
2022-09-26T19:59:42.629Z,10.45
2022-09-26T20:02:21.043Z,10.46
2022-09-26T20:04:48.355Z,10.28
2022-09-26T20:07:16.401Z,10.21
2022-09-26T20:09:43.365Z,10.22
2022-09-26T20:12:10.827Z,10.24
2022-09-26T20:14:37.717Z,10.26
2022-09-26T20:17:23.375Z,10.11
2022-09-26T20:19:54.001Z,10.02
2022-09-26T20:22:24.615Z,10.01
2022-09-26T20:24:53.722Z,9.95
2022-09-26T20:27:22.544Z,9.91
2022-09-26T20:30:08.330Z,10.10
2022-09-26T20:32:36.421Z,9.97
2022-09-26T20:35:04.407Z,9.96
2022-09-26T20:37:32.900Z,9.80
2022-09-26T20:40:01.448Z,9.80
2022-09-26T20:42:32.644Z,9.73
2022-09-26T20:44:59.466Z,9.76
2022-09-26T20:47:27.013Z,9.42
2022-09-26T20:49:58.663Z,9.54
2022-09-26T20:52:27.306Z,9.60
2022-09-26T20:54:55.388Z,9.55
2022-09-26T20:57:23.293Z,9.63
2022-09-26T20:59:50.646Z,9.72
2022-09-26T21:02:20.735Z,9.69
2022-09-26T21:04:47.929Z,9.59
2022-09-26T21:07:15.597Z,9.62
2022-09-26T21:09:42.612Z,9.73
2022-09-26T21:12:13.148Z,9.62
2022-09-26T21:14:39.920Z,9.50
2022-09-26T21:17:18.292Z,9.50
2022-09-26T21:19:47.389Z,9.68
2022-09-26T21:22:14.588Z,9.61
2022-09-26T21:24:42.628Z,9.65
2022-09-26T21:27:10.747Z,9.70
2022-09-26T21:29:37.989Z,9.65
2022-09-26T21:32:06.815Z,9.70
2022-09-26T21:34:33.800Z,9.77
2022-09-26T21:37:03.172Z,9.66
2022-09-26T21:39:30.763Z,9.83
2022-09-26T21:41:58.851Z,9.90
2022-09-26T21:44:25.907Z,9.70
2022-09-26T21:46:52.829Z,9.78
2022-09-26T21:49:19.662Z,9.80
2022-09-26T21:51:52.280Z,9.62
2022-09-26T21:54:22.384Z,9.70
2022-09-26T21:56:51.825Z,9.71
2022-09-26T21:59:20.151Z,9.72
2022-09-26T22:01:47.359Z,9.77
2022-09-26T22:04:14.716Z,9.85
2022-09-26T22:06:41.999Z,9.82
2022-09-26T22:09:09.393Z,9.78
2022-09-26T22:11:37.174Z,9.62
2022-09-26T22:14:04.560Z,9.78
2022-09-26T22:16:31.528Z,9.80
2022-09-26T22:18:59.048Z,9.75
2022-09-26T22:21:27.372Z,9.77
2022-09-26T22:23:54.157Z,9.82
2022-09-26T22:26:21.343Z,9.83
2022-09-26T22:28:49.205Z,9.79
2022-09-26T22:31:16.404Z,9.96
2022-09-26T22:33:43.477Z,9.85
2022-09-26T22:36:10.311Z,9.68
2022-09-26T22:38:37.115Z,9.78
2022-09-26T22:41:05.372Z,9.64
2022-09-26T22:43:32.910Z,9.65
2022-09-26T22:46:06.922Z,9.58
2022-09-26T22:48:35.733Z,9.65
2022-09-26T22:51:02.907Z,9.80
2022-09-26T22:53:33.646Z,9.74
2022-09-26T22:56:09.832Z,9.89
2022-09-26T22:58:41.404Z,9.90
2022-09-26T23:01:10.881Z,9.94
2022-09-26T23:03:37.757Z,9.88
2022-09-26T23:06:04.762Z,9.75
2022-09-26T23:08:32.764Z,9.86
2022-09-26T23:11:00.871Z,9.71
2022-09-26T23:13:28.982Z,9.58
2022-09-26T23:15:55.985Z,9.65
2022-09-26T23:18:22.771Z,9.66
2022-09-26T23:20:49.532Z,9.54
2022-09-26T23:23:16.575Z,9.53
2022-09-26T23:25:47.257Z,9.43
2022-09-26T23:28:14.447Z,9.42
2022-09-26T23:30:41.870Z,9.38
2022-09-26T23:33:08.973Z,9.32
2022-09-26T23:35:35.824Z,9.28
2022-09-26T23:38:05.366Z,9.25
2022-09-26T23:40:32.707Z,9.26
2022-09-26T23:42:59.622Z,9.30
2022-09-26T23:45:27.220Z,9.27
2022-09-26T23:47:54.013Z,9.42
2022-09-26T23:50:21.370Z,9.32
2022-09-26T23:52:48.407Z,9.32
2022-09-26T23:55:15.251Z,9.32
2022-09-26T23:57:42.059Z,9.41
